Time;durP1;ratioP1;P1;durP2;ratioP2;P2;SDS_P1;SDS_P2;PMS_P1;PMS_P2;Temp;Humidity;BMP_temperature;BMP_pressure;BME280_temperature;BME280_humidity;BME280_pressure;Samples;Min_cycle;Max_cycle;Signal;HPM_P1;HPM_P2
2023/05/04 02:51:00;;;;;;;1999.90;999.90;;;;;;;;;;6178922;23;20206;-70
2023/05/04 02:53:45;;;;;;;1999.90;999.90;;;;;;;;;;6183095;23;20175;-72
2023/05/04 02:56:30;;;;;;;1999.90;999.90;;;;;;;;;;6182711;23;20213;-72
2023/05/04 02:59:15;;;;;;;1999.90;999.90;;;;;;;;;;6182279;23;20268;-72
2023/05/04 03:02:00;;;;;;;1999.90;999.90;;;;;;;;;;6183670;23;20205;-71
2023/05/04 03:04:45;;;;;;;1999.90;999.90;;;;;;;;;;6183699;23;20197;-72
2023/05/04 03:07:31;;;;;;;1999.90;999.90;;;;;;;;;;6183897;23;20170;-67
2023/05/04 03:10:17;;;;;;;1999.90;999.90;;;;;;;;;;6183507;23;20216;-72
2023/05/04 03:13:04;;;;;;;1999.90;999.90;;;;;;;;;;6183647;23;20206;-70
2023/05/04 03:15:49;;;;;;;1999.90;999.90;;;;;;;;;;6183792;23;20166;-70
2023/05/04 03:18:35;;;;;;;1999.90;999.90;;;;;;;;;;6183511;23;20190;-70
2023/05/04 03:21:20;;;;;;;1999.90;999.90;;;;;;;;;;6183729;23;20205;-71
2023/05/04 03:24:06;;;;;;;1999.90;999.90;;;;;;;;;;6183596;23;20259;-71
2023/05/04 03:26:51;;;;;;;1999.90;999.90;;;;;;;;;;6183662;23;20502;-70
2023/05/04 03:29:36;;;;;;;1999.90;999.90;;;;;;;;;;6182743;23;20380;-72
2023/05/04 03:32:21;;;;;;;1999.90;999.90;;;;;;;;;;6183905;23;20412;-71
2023/05/04 03:35:06;;;;;;;1999.90;999.90;;;;;;;;;;6184160;23;20163;-70
2023/05/04 03:37:51;;;;;;;1999.90;999.90;;;;;;;;;;6184028;23;20563;-73
2023/05/04 03:40:37;;;;;;;1999.90;999.90;;;;;;;;;;6183723;23;20209;-73
2023/05/04 03:43:22;;;;;;;1999.90;999.90;;;;;;;;;;6183436;23;20423;-73
2023/05/04 03:46:07;;;;;;;1999.90;999.90;;;;;;;;;;6183706;23;20194;-73
2023/05/04 03:48:52;;;;;;;1999.90;999.90;;;;;;;;;;6183365;23;20169;-70
2023/05/04 03:51:37;;;;;;;1999.90;999.90;;;;;;;;;;6183795;23;20212;-73
2023/05/04 03:54:22;;;;;;;1999.90;999.90;;;;;;;;;;6183777;23;20617;-73
2023/05/04 03:57:08;;;;;;;1999.90;999.90;;;;;;;;;;6183627;23;20197;-73
2023/05/04 03:59:53;;;;;;;1999.90;999.90;;;;;;;;;;6183323;23;20173;-72
2023/05/04 04:02:38;;;;;;;1999.90;999.90;;;;;;;;;;6183647;23;20205;-73
2023/05/04 04:05:23;;;;;;;1999.90;999.90;;;;;;;;;;6183609;23;20194;-73
2023/05/04 04:08:07;;;;;;;1999.90;999.90;;;;;;;;;;6185209;23;20170;-72
2023/05/04 04:10:52;;;;;;;1999.90;999.90;;;;;;;;;;6185613;23;20208;-73
2023/05/04 04:13:39;;;;;;;1999.90;999.90;;;;;;;;;;6185635;23;20170;-73
2023/05/04 04:16:23;;;;;;;1999.90;999.90;;;;;;;;;;6185649;23;20218;-73
2023/05/04 04:19:08;;;;;;;1999.90;999.90;;;;;;;;;;6183646;23;20376;-71
2023/05/04 04:21:53;;;;;;;1999.90;999.90;;;;;;;;;;6184587;23;20265;-73
2023/05/04 04:24:38;;;;;;;1999.90;999.90;;;;;;;;;;6185645;23;20507;-71
2023/05/04 04:27:24;;;;;;;1999.90;999.90;;;;;;;;;;6184425;23;20182;-72
2023/05/04 04:30:11;;;;;;;1999.90;999.90;;;;;;;;;;6184774;23;20173;-72
2023/05/04 04:32:56;;;;;;;1999.90;999.90;;;;;;;;;;6184830;23;20762;-73
2023/05/04 04:35:41;;;;;;;1999.90;999.90;;;;;;;;;;6185132;23;20167;-72
2023/05/04 04:38:26;;;;;;;1999.90;999.90;;;;;;;;;;6185133;23;20177;-73
2023/05/04 04:41:11;;;;;;;1999.90;999.90;;;;;;;;;;6184742;23;20305;-73
2023/05/04 04:43:56;;;;;;;1999.90;999.90;;;;;;;;;;6183566;23;20171;-72
2023/05/04 04:46:43;;;;;;;1999.90;999.90;;;;;;;;;;6184796;23;20229;-72
2023/05/04 04:49:28;;;;;;;1999.90;999.90;;;;;;;;;;6185082;23;20244;-72
2023/05/04 04:52:13;;;;;;;1999.90;999.90;;;;;;;;;;6184628;23;20725;-71
2023/05/04 04:54:57;;;;;;;1999.90;999.90;;;;;;;;;;6184296;23;20179;-73
2023/05/04 04:57:42;;;;;;;1999.90;999.90;;;;;;;;;;6185374;23;20166;-72
2023/05/04 05:00:27;;;;;;;1999.90;999.90;;;;;;;;;;6184504;23;20200;-73
2023/05/04 05:03:14;;;;;;;1999.90;999.90;;;;;;;;;;6184849;23;20246;-72
2023/05/04 05:06:00;;;;;;;1999.90;999.90;;;;;;;;;;6184711;23;20285;-72
2023/05/04 05:08:45;;;;;;;1999.90;999.90;;;;;;;;;;6183942;23;20372;-71
2023/05/04 05:11:30;;;;;;;1999.90;999.90;;;;;;;;;;6184073;23;20206;-72
2023/05/04 05:14:15;;;;;;;1999.90;999.90;;;;;;;;;;6185506;23;20198;-71
2023/05/04 05:17:02;;;;;;;1999.90;999.90;;;;;;;;;;6185114;23;20162;-71
2023/05/04 05:19:49;;;;;;;1999.90;999.90;;;;;;;;;;6184629;23;20654;-70
2023/05/04 05:22:34;;;;;;;1999.90;999.90;;;;;;;;;;6184141;23;20358;-72
2023/05/04 05:25:19;;;;;;;1999.90;999.90;;;;;;;;;;6184455;23;20194;-71
2023/05/04 05:28:04;;;;;;;1999.90;999.90;;;;;;;;;;6185012;23;20209;-71
2023/05/04 05:30:50;;;;;;;1999.90;999.90;;;;;;;;;;6184564;23;20201;-71
2023/05/04 05:33:35;;;;;;;1999.90;999.90;;;;;;;;;;6185324;23;20182;-71
2023/05/04 05:36:21;;;;;;;1999.90;999.90;;;;;;;;;;6184808;23;20623;-71
2023/05/04 05:39:06;;;;;;;1999.90;999.90;;;;;;;;;;6184046;23;20631;-72
2023/05/04 05:41:55;;;;;;;1999.90;999.90;;;;;;;;;;6184818;23;20225;-71
2023/05/04 05:44:40;;;;;;;1999.90;999.90;;;;;;;;;;6184450;23;20245;-71
2023/05/04 05:47:24;;;;;;;1999.90;999.90;;;;;;;;;;6185163;23;20166;-70
2023/05/04 05:50:11;;;;;;;1999.90;999.90;;;;;;;;;;6184221;23;20217;-71
2023/05/04 05:52:57;;;;;;;1999.90;999.90;;;;;;;;;;6184952;23;20171;-71
2023/05/04 05:55:42;;;;;;;1999.90;999.90;;;;;;;;;;6183020;23;20369;-71
2023/05/04 05:58:27;;;;;;;1999.90;999.90;;;;;;;;;;6184021;23;20230;-71
2023/05/04 06:01:12;;;;;;;1999.90;999.90;;;;;;;;;;6184297;23;20249;-71
2023/05/04 06:03:57;;;;;;;1999.90;999.90;;;;;;;;;;6184451;23;20171;-70
2023/05/04 06:06:42;;;;;;;1999.90;999.90;;;;;;;;;;6184204;23;20193;-71
2023/05/04 06:09:28;;;;;;;1999.90;999.90;;;;;;;;;;6182999;23;20823;-71
2023/05/04 06:12:14;;;;;;;1999.90;999.90;;;;;;;;;;6184663;23;20299;-71
2023/05/04 06:14:58;;;;;;;1999.90;999.90;;;;;;;;;;6183660;23;20170;-71
2023/05/04 06:17:43;;;;;;;1999.90;999.90;;;;;;;;;;6184754;23;20196;-71
2023/05/04 06:20:28;;;;;;;1999.90;999.90;;;;;;;;;;6184250;23;20683;-71
2023/05/04 06:23:14;;;;;;;1999.90;999.90;;;;;;;;;;6183989;23;20174;-72
2023/05/04 06:26:00;;;;;;;1999.90;999.90;;;;;;;;;;6184480;23;20536;-71
2023/05/04 06:28:45;;;;;;;1999.90;999.90;;;;;;;;;;6183665;23;20173;-70
2023/05/04 06:31:30;;;;;;;1999.90;999.90;;;;;;;;;;6184303;23;20240;-71
2023/05/04 06:34:15;;;;;;;1999.90;999.90;;;;;;;;;;6184109;23;20170;-69
2023/05/04 06:37:00;;;;;;;1999.90;999.90;;;;;;;;;;6184435;23;20532;-70
2023/05/04 06:39:45;;;;;;;1999.90;999.90;;;;;;;;;;6182384;23;20185;-71
2023/05/04 06:42:32;;;;;;;1999.90;999.90;;;;;;;;;;6183199;23;20212;-71
2023/05/04 06:45:17;;;;;;;1999.90;999.90;;;;;;;;;;6183100;23;20738;-72
2023/05/04 06:48:02;;;;;;;1999.90;999.90;;;;;;;;;;6184260;23;20666;-71
2023/05/04 06:50:47;;;;;;;1999.90;999.90;;;;;;;;;;6183748;23;20286;-72
2023/05/04 06:53:32;;;;;;;1999.90;999.90;;;;;;;;;;6183942;23;20170;-71
2023/05/04 06:56:17;;;;;;;1999.90;999.90;;;;;;;;;;6183914;23;20705;-71
2023/05/04 06:59:04;;;;;;;1999.90;999.90;;;;;;;;;;6182219;23;20369;-72
2023/05/04 07:01:49;;;;;;;1999.90;999.90;;;;;;;;;;6181460;23;20682;-71
2023/05/04 07:04:34;;;;;;;1999.90;999.90;;;;;;;;;;6181423;23;20166;-70
2023/05/04 07:07:19;;;;;;;1999.90;999.90;;;;;;;;;;6181413;23;20541;-71
2023/05/04 07:10:04;;;;;;;1999.90;999.90;;;;;;;;;;6182249;23;20667;-70
2023/05/04 07:12:50;;;;;;;1999.90;999.90;;;;;;;;;;6183933;23;20189;-73
2023/05/04 07:15:36;;;;;;;1999.90;999.90;;;;;;;;;;6184076;23;20493;-71
2023/05/04 07:18:21;;;;;;;1999.90;999.90;;;;;;;;;;6183099;23;20170;-71
2023/05/04 07:21:09;;;;;;;1999.90;999.90;;;;;;;;;;6183505;23;20274;-71
2023/05/04 07:23:54;;;;;;;1999.90;999.90;;;;;;;;;;6183446;23;20167;-71
2023/05/04 07:26:39;;;;;;;1999.90;999.90;;;;;;;;;;6183885;23;20189;-71
2023/05/04 07:29:25;;;;;;;1999.90;999.90;;;;;;;;;;6183770;23;20631;-71
2023/05/04 07:32:11;;;;;;;1999.90;999.90;;;;;;;;;;6183213;23;20297;-71
2023/05/04 07:34:56;;;;;;;1999.90;999.90;;;;;;;;;;6184042;23;20506;-71
2023/05/04 07:37:41;;;;;;;1999.90;999.90;;;;;;;;;;6184076;23;20177;-71
2023/05/04 07:40:26;;;;;;;1999.90;999.90;;;;;;;;;;6183514;23;20166;-71
2023/05/04 07:43:11;;;;;;;1999.90;999.90;;;;;;;;;;6183246;23;20166;-71
2023/05/04 07:45:56;;;;;;;1999.90;999.90;;;;;;;;;;6184134;23;20519;-71
2023/05/04 07:48:42;;;;;;;1999.90;999.90;;;;;;;;;;6182386;23;20206;-71
2023/05/04 07:51:27;;;;;;;1999.90;999.90;;;;;;;;;;6181950;23;20444;-69
2023/05/04 07:54:12;;;;;;;1999.90;999.90;;;;;;;;;;6183757;23;20193;-71
2023/05/04 07:56:57;;;;;;;1999.90;999.90;;;;;;;;;;6182232;23;20248;-71
2023/05/04 07:59:42;;;;;;;1999.90;999.90;;;;;;;;;;6182344;23;20554;-71
2023/05/04 08:02:26;;;;;;;1999.90;999.90;;;;;;;;;;6183724;23;20201;-70
2023/05/04 08:05:13;;;;;;;1999.90;999.90;;;;;;;;;;6183598;23;20247;-71
2023/05/04 08:07:58;;;;;;;1999.90;999.90;;;;;;;;;;6182488;23;20695;-70
2023/05/04 08:10:42;;;;;;;1999.90;999.90;;;;;;;;;;6180356;23;20245;-70
2023/05/04 08:13:27;;;;;;;1999.90;999.90;;;;;;;;;;6183608;23;20225;-70
2023/05/04 08:16:12;;;;;;;1999.90;999.90;;;;;;;;;;6182517;23;20245;-71
2023/05/04 08:18:58;;;;;;;1999.90;999.90;;;;;;;;;;6182330;23;20253;-70
2023/05/04 08:21:44;;;;;;;1999.90;999.90;;;;;;;;;;6182305;23;20206;-70
2023/05/04 08:24:30;;;;;;;1999.90;999.90;;;;;;;;;;6181764;23;20377;-71
2023/05/04 08:27:15;;;;;;;1999.90;999.90;;;;;;;;;;6183426;23;20419;-71
2023/05/04 08:29:59;;;;;;;1999.90;999.90;;;;;;;;;;6181981;23;20210;-69
2023/05/04 08:32:44;;;;;;;1999.90;999.90;;;;;;;;;;6183650;23;20170;-69
2023/05/04 08:35:30;;;;;;;1999.90;999.90;;;;;;;;;;6183103;23;20170;-70
2023/05/04 08:38:16;;;;;;;1999.90;999.90;;;;;;;;;;6182858;23;20376;-70
2023/05/04 08:41:01;;;;;;;1999.90;999.90;;;;;;;;;;6183364;23;20291;-70
2023/05/04 08:43:48;;;;;;;1999.90;999.90;;;;;;;;;;6182310;23;20631;-70
2023/05/04 08:46:33;;;;;;;1999.90;999.90;;;;;;;;;;6181446;23;20191;-69
2023/05/04 08:49:18;;;;;;;1999.90;999.90;;;;;;;;;;6180810;23;20253;-69
2023/05/04 08:52:05;;;;;;;1999.90;999.90;;;;;;;;;;6181294;23;20221;-71
2023/05/04 08:54:54;;;;;;;1999.90;999.90;;;;;;;;;;6182930;23;20547;-69
2023/05/04 08:57:41;;;;;;;1999.90;999.90;;;;;;;;;;6182084;23;20245;-69
2023/05/04 09:00:27;;;;;;;1999.90;999.90;;;;;;;;;;6182868;23;20170;-71
2023/05/04 09:03:12;;;;;;;1999.90;999.90;;;;;;;;;;6182239;23;20171;-71
2023/05/04 09:05:58;;;;;;;1999.90;999.90;;;;;;;;;;6182381;23;20515;-68
2023/05/04 09:08:43;;;;;;;1999.90;999.90;;;;;;;;;;6182409;23;20170;-70
2023/05/04 09:11:29;;;;;;;1999.90;999.90;;;;;;;;;;6182271;23;20388;-72
2023/05/04 09:14:14;;;;;;;1999.90;999.90;;;;;;;;;;6182505;23;20166;-70
2023/05/04 09:17:00;;;;;;;1999.90;999.90;;;;;;;;;;6182582;23;20170;-70
2023/05/04 09:19:45;;;;;;;1999.90;999.90;;;;;;;;;;6182476;23;20169;-70
2023/05/04 09:22:30;;;;;;;1999.90;999.90;;;;;;;;;;6182807;23;20206;-72
2023/05/04 09:25:15;;;;;;;1999.90;999.90;;;;;;;;;;6182999;23;20514;-72
2023/05/04 09:28:01;;;;;;;1999.90;999.90;;;;;;;;;;6182946;23;20229;-73
2023/05/04 09:30:47;;;;;;;1999.90;999.90;;;;;;;;;;6182862;23;20285;-71
2023/05/04 09:33:32;;;;;;;1999.90;999.90;;;;;;;;;;6183608;23;20607;-70
2023/05/04 09:36:18;;;;;;;1999.90;999.90;;;;;;;;;;6184561;23;20166;-71
2023/05/04 09:39:09;;;;;;;1999.90;999.90;;;;;;;;;;6183481;23;20241;-70
2023/05/04 09:41:55;;;;;;;1999.90;999.90;;;;;;;;;;6184985;23;20245;-71
2023/05/04 09:44:41;;;;;;;1999.90;999.90;;;;;;;;;;6182650;23;20210;-71
2023/05/04 09:47:37;;;;;;;1999.90;999.90;;;;;;;;;;6184746;23;20651;-71
2023/05/04 09:50:24;;;;;;;1999.90;999.90;;;;;;;;;;6183950;23;20741;-71
2023/05/04 09:53:09;;;;;;;1999.90;999.90;;;;;;;;;;6184893;23;20626;-71
2023/05/04 09:56:00;;;;;;;1999.90;999.90;;;;;;;;;;6184659;23;20230;-72
2023/05/04 09:58:46;;;;;;;1999.90;999.90;;;;;;;;;;6183751;23;20424;-72
2023/05/04 10:01:32;;;;;;;1999.90;999.90;;;;;;;;;;6184613;23;20280;-73
2023/05/04 10:04:17;;;;;;;1999.90;999.90;;;;;;;;;;6183871;23;20241;-72
2023/05/04 10:07:04;;;;;;;1999.90;999.90;;;;;;;;;;6184111;23;20194;-72
2023/05/04 10:09:50;;;;;;;1999.90;999.90;;;;;;;;;;6183731;23;20214;-72
2023/05/04 10:12:35;;;;;;;1999.90;999.90;;;;;;;;;;6183955;23;20573;-71
2023/05/04 10:15:20;;;;;;;1999.90;999.90;;;;;;;;;;6182307;23;20462;-72
2023/05/04 10:18:12;;;;;;;1999.90;999.90;;;;;;;;;;6183384;23;20204;-72
2023/05/04 10:21:03;;;;;;;1999.90;999.90;;;;;;;;;;6182892;23;20289;-73
2023/05/04 10:23:56;;;;;;;1999.90;999.90;;;;;;;;;;6184404;23;20741;-73
2023/05/04 10:26:46;;;;;;;1999.90;999.90;;;;;;;;;;6184572;23;20285;-71
2023/05/04 10:29:32;;;;;;;1999.90;999.90;;;;;;;;;;6183664;23;20253;-71
2023/05/04 10:32:17;;;;;;;1999.90;999.90;;;;;;;;;;6184654;23;20237;-72
2023/05/04 10:35:08;;;;;;;1999.90;999.90;;;;;;;;;;6184238;23;20171;-71
2023/05/04 10:37:53;;;;;;;1999.90;999.90;;;;;;;;;;6184004;23;20210;-72
2023/05/04 10:40:39;;;;;;;1999.90;999.90;;;;;;;;;;6183682;23;20206;-72
2023/05/04 10:43:24;;;;;;;1999.90;999.90;;;;;;;;;;6183653;23;20186;-73
2023/05/04 10:46:19;;;;;;;1999.90;999.90;;;;;;;;;;6183388;23;20178;-73
2023/05/04 10:49:15;;;;;;;1999.90;999.90;;;;;;;;;;6182096;23;20163;-72
2023/05/04 10:52:08;;;;;;;1999.90;999.90;;;;;;;;;;6184106;23;20266;-73
2023/05/04 10:54:58;;;;;;;1999.90;999.90;;;;;;;;;;6183903;23;20253;-73
2023/05/04 10:57:48;;;;;;;1999.90;999.90;;;;;;;;;;6183833;23;20212;-69
2023/05/04 11:00:37;;;;;;;1999.90;999.90;;;;;;;;;;6182544;23;20276;-70
2023/05/04 11:03:23;;;;;;;1999.90;999.90;;;;;;;;;;6183147;23;20422;-73
2023/05/04 11:06:14;;;;;;;1999.90;999.90;;;;;;;;;;6183574;23;20168;-72
2023/05/04 11:09:02;;;;;;;1999.90;999.90;;;;;;;;;;6183851;23;20223;-72
2023/05/04 11:11:48;;;;;;;1999.90;999.90;;;;;;;;;;6183884;23;20208;-72
2023/05/04 11:14:36;;;;;;;1999.90;999.90;;;;;;;;;;6183753;23;20168;-71
2023/05/04 11:17:21;;;;;;;1999.90;999.90;;;;;;;;;;6184231;23;20240;-70
2023/05/04 11:20:07;;;;;;;1999.90;999.90;;;;;;;;;;6183305;23;20232;-71
2023/05/04 11:22:52;;;;;;;1999.90;999.90;;;;;;;;;;6184003;23;20623;-72
2023/05/04 11:25:39;;;;;;;1999.90;999.90;;;;;;;;;;6183394;23;20680;-71
2023/05/04 11:28:34;;;;;;;1999.90;999.90;;;;;;;;;;6183517;23;20242;-71
2023/05/04 11:31:20;;;;;;;1999.90;999.90;;;;;;;;;;6183023;23;20271;-71
2023/05/04 11:34:06;;;;;;;1999.90;999.90;;;;;;;;;;6183421;23;20558;-71
2023/05/04 11:36:50;;;;;;;1999.90;999.90;;;;;;;;;;6183839;23;20168;-70
2023/05/04 11:39:36;;;;;;;1999.90;999.90;;;;;;;;;;6182967;23;20289;-70
2023/05/04 11:42:22;;;;;;;1999.90;999.90;;;;;;;;;;6183713;23;20545;-72
2023/05/04 11:45:10;;;;;;;1999.90;999.90;;;;;;;;;;6183306;23;20257;-71
2023/05/04 11:47:56;;;;;;;1999.90;999.90;;;;;;;;;;6183079;23;20717;-70
2023/05/04 11:50:41;;;;;;;1999.90;999.90;;;;;;;;;;6183066;23;20370;-69
2023/05/04 11:53:27;;;;;;;1999.90;999.90;;;;;;;;;;6183247;23;20172;-69
2023/05/04 11:56:12;;;;;;;1999.90;999.90;;;;;;;;;;6183747;23;20634;-70
2023/05/04 11:59:09;;;;;;;1999.90;999.90;;;;;;;;;;6183107;23;20165;-69
2023/05/04 12:01:55;;;;;;;1999.90;999.90;;;;;;;;;;6183011;23;20284;-69
2023/05/04 12:04:40;;;;;;;1999.90;999.90;;;;;;;;;;6183116;23;20245;-70
2023/05/04 12:07:25;;;;;;;1999.90;999.90;;;;;;;;;;6183808;23;20263;-69
2023/05/04 12:10:10;;;;;;;1999.90;999.90;;;;;;;;;;6182336;23;20174;-70
2023/05/04 12:12:55;;;;;;;1999.90;999.90;;;;;;;;;;6181064;23;20169;-70
2023/05/04 12:15:42;;;;;;;1999.90;999.90;;;;;;;;;;6183836;23;20509;-70
2023/05/04 12:18:28;;;;;;;1999.90;999.90;;;;;;;;;;6182857;23;20170;-69
2023/05/04 12:21:14;;;;;;;1999.90;999.90;;;;;;;;;;6182818;23;20218;-67
2023/05/04 12:23:59;;;;;;;1999.90;999.90;;;;;;;;;;6182767;23;20177;-70
2023/05/04 12:26:44;;;;;;;1999.90;999.90;;;;;;;;;;6182487;23;20431;-70
2023/05/04 12:29:29;;;;;;;1999.90;999.90;;;;;;;;;;6185182;23;20376;-69
2023/05/04 12:32:15;;;;;;;1999.90;999.90;;;;;;;;;;6185424;23;20287;-69
2023/05/04 12:35:00;;;;;;;1999.90;999.90;;;;;;;;;;6184848;23;20170;-70
2023/05/04 12:37:45;;;;;;;1999.90;999.90;;;;;;;;;;6184996;23;20162;-72
2023/05/04 12:40:30;;;;;;;1999.90;999.90;;;;;;;;;;6185535;23;20285;-71
2023/05/04 12:43:17;;;;;;;1999.90;999.90;;;;;;;;;;6185505;23;20173;-71
2023/05/04 12:46:02;;;;;;;1999.90;999.90;;;;;;;;;;6185478;23;20165;-69
2023/05/04 12:48:48;;;;;;;1999.90;999.90;;;;;;;;;;6185100;23;20257;-70
2023/05/04 12:51:33;;;;;;;1999.90;999.90;;;;;;;;;;6185623;23;20250;-69
2023/05/04 12:54:18;;;;;;;1999.90;999.90;;;;;;;;;;6184421;23;20173;-68
2023/05/04 12:57:03;;;;;;;1999.90;999.90;;;;;;;;;;6185450;23;20171;-68
2023/05/04 12:59:48;;;;;;;1999.90;999.90;;;;;;;;;;6184940;23;20216;-70
2023/05/04 13:02:33;;;;;;;1999.90;999.90;;;;;;;;;;6185263;23;20209;-70
2023/05/04 13:05:21;;;;;;;1999.90;999.90;;;;;;;;;;6183291;23;20166;-70
2023/05/04 13:08:07;;;;;;;1999.90;999.90;;;;;;;;;;6184662;23;20533;-70
2023/05/04 13:10:52;;;;;;;1999.90;999.90;;;;;;;;;;6182446;23;20209;-72
2023/05/04 13:13:37;;;;;;;1999.90;999.90;;;;;;;;;;6183492;23;20189;-72
2023/05/04 13:16:22;;;;;;;1999.90;999.90;;;;;;;;;;6182887;23;20171;-69
2023/05/04 13:19:07;;;;;;;1999.90;999.90;;;;;;;;;;6182670;23;20179;-69
2023/05/04 13:21:53;;;;;;;1999.90;999.90;;;;;;;;;;6182814;23;20272;-69
2023/05/04 13:24:37;;;;;;;1999.90;999.90;;;;;;;;;;6182867;23;20170;-72
2023/05/04 13:27:23;;;;;;;1999.90;999.90;;;;;;;;;;6182165;23;20463;-72
2023/05/04 13:30:09;;;;;;;1999.90;999.90;;;;;;;;;;6182362;23;20282;-69
2023/05/04 13:32:54;;;;;;;1999.90;999.90;;;;;;;;;;6182927;23;20173;-69
2023/05/04 13:35:39;;;;;;;1999.90;999.90;;;;;;;;;;6182241;23;20171;-70
2023/05/04 13:38:26;;;;;;;1999.90;999.90;;;;;;;;;;6180731;23;20170;-69
2023/05/04 13:41:11;;;;;;;1999.90;999.90;;;;;;;;;;6182240;23;20245;-71
2023/05/04 13:43:56;;;;;;;1999.90;999.90;;;;;;;;;;6183094;23;20230;-69
2023/05/04 13:46:41;;;;;;;1999.90;999.90;;;;;;;;;;6182521;23;20263;-73
2023/05/04 13:49:25;;;;;;;1999.90;999.90;;;;;;;;;;6182428;23;20198;-71
2023/05/04 13:52:11;;;;;;;1999.90;999.90;;;;;;;;;;6181870;23;20220;-69
2023/05/04 13:54:57;;;;;;;1999.90;999.90;;;;;;;;;;6182237;23;20170;-70
2023/05/04 13:57:41;;;;;;;1999.90;999.90;;;;;;;;;;6182063;23;20170;-70
2023/05/04 14:00:26;;;;;;;1999.90;999.90;;;;;;;;;;6181285;23;20514;-69
2023/05/04 14:03:11;;;;;;;1999.90;999.90;;;;;;;;;;6182242;23;20376;-70
2023/05/04 14:05:57;;;;;;;1999.90;999.90;;;;;;;;;;6182630;23;20169;-69
2023/05/04 14:08:42;;;;;;;1999.90;999.90;;;;;;;;;;6181545;23;20269;-71
2023/05/04 14:11:28;;;;;;;1999.90;999.90;;;;;;;;;;6182869;23;20742;-69
2023/05/04 14:14:13;;;;;;;1999.90;999.90;;;;;;;;;;6182583;23;20170;-69
2023/05/04 14:16:58;;;;;;;1999.90;999.90;;;;;;;;;;6182423;23;20171;-68
2023/05/04 14:19:43;;;;;;;1999.90;999.90;;;;;;;;;;6181311;23;20706;-69
2023/05/04 14:22:28;;;;;;;1999.90;999.90;;;;;;;;;;6181460;23;20202;-70
2023/05/04 14:25:14;;;;;;;1999.90;999.90;;;;;;;;;;6180646;23;20502;-71
2023/05/04 14:28:00;;;;;;;1999.90;999.90;;;;;;;;;;6182351;23;20198;-70
2023/05/04 14:30:45;;;;;;;1999.90;999.90;;;;;;;;;;6182250;23;20545;-70
2023/05/04 14:33:30;;;;;;;1999.90;999.90;;;;;;;;;;6182856;23;20170;-70
2023/05/04 14:36:15;;;;;;;1999.90;999.90;;;;;;;;;;6180889;23;20695;-69
2023/05/04 14:39:01;;;;;;;1999.90;999.90;;;;;;;;;;6180889;23;20246;-70
2023/05/04 14:41:47;;;;;;;1999.90;999.90;;;;;;;;;;6181960;23;20201;-71
2023/05/04 14:44:33;;;;;;;1999.90;999.90;;;;;;;;;;6182481;23;20639;-71
2023/05/04 14:47:19;;;;;;;1999.90;999.90;;;;;;;;;;6181390;23;20166;-70
2023/05/04 14:50:04;;;;;;;1999.90;999.90;;;;;;;;;;6181041;23;20714;-71
2023/05/04 14:52:49;;;;;;;1999.90;999.90;;;;;;;;;;6182057;23;20210;-70
2023/05/04 14:55:40;;;;;;;1999.90;999.90;;;;;;;;;;6181059;23;20249;-68
2023/05/04 14:58:25;;;;;;;1999.90;999.90;;;;;;;;;;6180423;23;20170;-69
2023/05/04 15:01:11;;;;;;;1999.90;999.90;;;;;;;;;;6182223;23;20218;-70
2023/05/04 15:03:56;;;;;;;1999.90;999.90;;;;;;;;;;6181279;23;20166;-71
2023/05/04 15:06:41;;;;;;;1999.90;999.90;;;;;;;;;;6179447;23;20381;-70
2023/05/04 15:09:26;;;;;;;1999.90;999.90;;;;;;;;;;6181367;23;20190;-69
2023/05/04 15:12:11;;;;;;;1999.90;999.90;;;;;;;;;;6181844;23;20209;-70
2023/05/04 15:14:56;;;;;;;1999.90;999.90;;;;;;;;;;6181084;23;20246;-71
2023/05/04 15:17:42;;;;;;;1999.90;999.90;;;;;;;;;;6181940;23;20263;-71
2023/05/04 15:20:28;;;;;;;1999.90;999.90;;;;;;;;;;6180969;23;20171;-70
2023/05/04 15:23:13;;;;;;;1999.90;999.90;;;;;;;;;;6181870;23;20174;-68
2023/05/04 15:25:59;;;;;;;1999.90;999.90;;;;;;;;;;6181716;23;20175;-71
2023/05/04 15:28:44;;;;;;;1999.90;999.90;;;;;;;;;;6179340;23;20654;-71
2023/05/04 15:31:29;;;;;;;1999.90;999.90;;;;;;;;;;6181458;23;20286;-69
2023/05/04 15:34:15;;;;;;;1999.90;999.90;;;;;;;;;;6181039;23;20502;-68
2023/05/04 15:37:00;;;;;;;1999.90;999.90;;;;;;;;;;6181674;23;20170;-69
2023/05/04 15:39:45;;;;;;;1999.90;999.90;;;;;;;;;;6180785;23;20163;-69
2023/05/04 15:42:30;;;;;;;1999.90;999.90;;;;;;;;;;6181876;23;20256;-67
2023/05/04 15:45:15;;;;;;;1999.90;999.90;;;;;;;;;;6181122;23;20511;-69
2023/05/04 15:48:00;;;;;;;1999.90;999.90;;;;;;;;;;6181811;23;20194;-66
2023/05/04 15:50:46;;;;;;;1999.90;999.90;;;;;;;;;;6180586;23;20209;-69
2023/05/04 15:53:32;;;;;;;1999.90;999.90;;;;;;;;;;6178860;23;20400;-68
2023/05/04 15:56:17;;;;;;;1999.90;999.90;;;;;;;;;;6179879;23;20245;-70
2023/05/04 15:59:01;;;;;;;1999.90;999.90;;;;;;;;;;6180052;23;20547;-69
2023/05/04 16:01:46;;;;;;;1999.90;999.90;;;;;;;;;;6181639;23;20210;-68
2023/05/04 16:04:32;;;;;;;1999.90;999.90;;;;;;;;;;6188207;23;20174;-70
2023/05/04 16:07:18;;;;;;;1999.90;999.90;;;;;;;;;;6185384;23;20166;-69
2023/05/04 16:10:03;;;;;;;1999.90;999.90;;;;;;;;;;6182503;23;20190;-70
2023/05/04 16:12:48;;;;;;;1999.90;999.90;;;;;;;;;;6183730;23;20170;-68
2023/05/04 16:15:33;;;;;;;1999.90;999.90;;;;;;;;;;6183688;23;20165;-70
2023/05/04 16:18:19;;;;;;;1999.90;999.90;;;;;;;;;;6182025;23;20167;-73
2023/05/04 16:21:04;;;;;;;1999.90;999.90;;;;;;;;;;6183640;23;20296;-70
2023/05/04 16:23:50;;;;;;;1999.90;999.90;;;;;;;;;;6183176;23;20170;-69
2023/05/04 16:26:35;;;;;;;1999.90;999.90;;;;;;;;;;6183735;23;20182;-69
2023/05/04 16:29:20;;;;;;;1999.90;999.90;;;;;;;;;;6184011;23;20190;-69
2023/05/04 16:32:05;;;;;;;1999.90;999.90;;;;;;;;;;6182229;23;20213;-70
2023/05/04 16:34:50;;;;;;;1999.90;999.90;;;;;;;;;;6183162;23;20301;-71
2023/05/04 16:37:35;;;;;;;1999.90;999.90;;;;;;;;;;6182467;23;20170;-70
2023/05/04 16:40:22;;;;;;;1999.90;999.90;;;;;;;;;;6182863;23;20565;-70
2023/05/04 16:43:09;;;;;;;1999.90;999.90;;;;;;;;;;6182380;23;20376;-69
2023/05/04 16:45:54;;;;;;;1999.90;999.90;;;;;;;;;;6182450;23;20225;-69
2023/05/04 16:48:38;;;;;;;1999.90;999.90;;;;;;;;;;6182125;23;20567;-70
2023/05/04 16:51:23;;;;;;;1999.90;999.90;;;;;;;;;;6182643;23;20300;-69
2023/05/04 16:54:08;;;;;;;1999.90;999.90;;;;;;;;;;6183342;23;20555;-67
2023/05/04 16:56:55;;;;;;;1999.90;999.90;;;;;;;;;;6182867;23;20241;-69
2023/05/04 16:59:40;;;;;;;1999.90;999.90;;;;;;;;;;6181905;23;20166;-69
2023/05/04 17:02:24;;;;;;;1999.90;999.90;;;;;;;;;;6182163;23;20202;-69
2023/05/04 17:05:10;;;;;;;1999.90;999.90;;;;;;;;;;6181954;23;20166;-69
2023/05/04 17:07:54;;;;;;;1999.90;999.90;;;;;;;;;;6182162;23;20214;-69
2023/05/04 17:10:39;;;;;;;1999.90;999.90;;;;;;;;;;6181659;23;20198;-69
2023/05/04 17:13:26;;;;;;;1999.90;999.90;;;;;;;;;;6182682;23;20619;-68
2023/05/04 17:16:11;;;;;;;1999.90;999.90;;;;;;;;;;6180887;23;20468;-67
2023/05/04 17:18:56;;;;;;;1999.90;999.90;;;;;;;;;;6181334;23;20246;-68
2023/05/04 17:21:41;;;;;;;1999.90;999.90;;;;;;;;;;6182350;23;20548;-68
2023/05/04 17:24:26;;;;;;;1999.90;999.90;;;;;;;;;;6182661;23;20378;-70
2023/05/04 17:27:11;;;;;;;1999.90;999.90;;;;;;;;;;6183010;23;20165;-69
2023/05/04 17:29:57;;;;;;;1999.90;999.90;;;;;;;;;;6183204;23;20190;-71
2023/05/04 17:32:42;;;;;;;1999.90;999.90;;;;;;;;;;6182773;23;20880;-69
2023/05/04 17:35:27;;;;;;;1999.90;999.90;;;;;;;;;;6184431;23;20171;-70
2023/05/04 17:38:12;;;;;;;1999.90;999.90;;;;;;;;;;6184670;23;20189;-69
2023/05/04 17:40:57;;;;;;;1999.90;999.90;;;;;;;;;;6184854;23;20202;-71
2023/05/04 17:43:42;;;;;;;1999.90;999.90;;;;;;;;;;6184426;23;20185;-70
2023/05/04 17:46:29;;;;;;;1999.90;999.90;;;;;;;;;;6184283;23;20182;-70
2023/05/04 17:49:17;;;;;;;1999.90;999.90;;;;;;;;;;6183384;23;20194;-69
2023/05/04 17:52:02;;;;;;;1999.90;999.90;;;;;;;;;;6184556;23;20249;-70
2023/05/04 17:54:47;;;;;;;1999.90;999.90;;;;;;;;;;6184615;23;20201;-71
2023/05/04 17:57:32;;;;;;;1999.90;999.90;;;;;;;;;;6183689;23;20206;-70
2023/05/04 18:00:17;;;;;;;1999.90;999.90;;;;;;;;;;6183771;23;20218;-69
2023/05/04 18:03:04;;;;;;;1999.90;999.90;;;;;;;;;;6184891;23;20166;-70
2023/05/04 18:05:49;;;;;;;1999.90;999.90;;;;;;;;;;6183303;23;20757;-70
2023/05/04 18:08:34;;;;;;;1999.90;999.90;;;;;;;;;;6184163;23;20170;-71
2023/05/04 18:11:19;;;;;;;1999.90;999.90;;;;;;;;;;6184496;23;20227;-70
2023/05/04 18:14:04;;;;;;;1999.90;999.90;;;;;;;;;;6184570;23;20666;-71